Ashwaubenon, Wisconsin
Current Conditions -  °F | °C
As of 6:53 AM on Friday 24 Oct 2014 (Local Time) from KGRB Reporting Station
Haze Haze  
Wind Chill: 46°   Ceiling: 700
Heat Index: 48°   Visibility: 3mi
Dew Point: 47°   Wind: 5mph
Humidity: 96%   Direction: 240°WSW
Pressure: 30.02"   Gusts: NA
Location:  44.48°N, 88.07°W
Report Text: KGRB 241153Z 24004KT 3SM BR OVC007 09/08 A3002 RMK AO2 SLP169 70007 T00890083 10094 20089 58000
Loading
Personal Weather Stations






























Interactive Weather Map
Tropical Storm Tracking
New forecast layout! Learn more

10-Day Weather Forecast

Advertisements
Track Severe Weather on mobile